sensor_id;sensor_type;location;lat;lon;timestamp;P1;durP1;ratioP1;P2;durP2;ratioP2
9986;SDS011;5033;46.310;11.214;2024-02-26T00:01:17;3.50;;;3.30;;
9986;SDS011;5033;46.310;11.214;2024-02-26T00:03:43;3.95;;;3.65;;
9986;SDS011;5033;46.310;11.214;2024-02-26T00:06:12;3.70;;;3.50;;
9986;SDS011;5033;46.310;11.214;2024-02-26T00:08:39;3.95;;;3.65;;
9986;SDS011;5033;46.310;11.214;2024-02-26T00:11:06;4.00;;;3.70;;
9986;SDS011;5033;46.310;11.214;2024-02-26T00:13:33;3.88;;;3.58;;
9986;SDS011;5033;46.310;11.214;2024-02-26T00:16:01;3.70;;;3.50;;
9986;SDS011;5033;46.310;11.214;2024-02-26T00:18:29;4.18;;;3.70;;
9986;SDS011;5033;46.310;11.214;2024-02-26T00:20:56;4.07;;;3.78;;
9986;SDS011;5033;46.310;11.214;2024-02-26T00:23:22;4.30;;;3.90;;
9986;SDS011;5033;46.310;11.214;2024-02-26T00:25:50;4.32;;;4.03;;
9986;SDS011;5033;46.310;11.214;2024-02-26T00:28:17;4.43;;;4.10;;
9986;SDS011;5033;46.310;11.214;2024-02-26T00:30:45;4.30;;;3.90;;
9986;SDS011;5033;46.310;11.214;2024-02-26T00:33:14;4.07;;;3.78;;
9986;SDS011;5033;46.310;11.214;2024-02-26T00:35:42;3.95;;;3.65;;
9986;SDS011;5033;46.310;11.214;2024-02-26T00:38:09;4.10;;;3.80;;
9986;SDS011;5033;46.310;11.214;2024-02-26T00:40:36;4.05;;;3.83;;
9986;SDS011;5033;46.310;11.214;2024-02-26T00:43:03;4.38;;;4.10;;
9986;SDS011;5033;46.310;11.214;2024-02-26T00:45:30;4.45;;;4.15;;
9986;SDS011;5033;46.310;11.214;2024-02-26T00:47:57;3.97;;;3.67;;
9986;SDS011;5033;46.310;11.214;2024-02-26T00:50:27;4.68;;;4.38;;
9986;SDS011;5033;46.310;11.214;2024-02-26T00:52:54;4.70;;;4.40;;
9986;SDS011;5033;46.310;11.214;2024-02-26T00:55:21;4.35;;;4.05;;
9986;SDS011;5033;46.310;11.214;2024-02-26T00:57:48;4.65;;;4.35;;
9986;SDS011;5033;46.310;11.214;2024-02-26T01:00:15;4.15;;;3.85;;
9986;SDS011;5033;46.310;11.214;2024-02-26T01:02:43;4.45;;;4.15;;
9986;SDS011;5033;46.310;11.214;2024-02-26T01:05:11;5.15;;;4.75;;
9986;SDS011;5033;46.310;11.214;2024-02-26T01:07:40;4.85;;;4.45;;
9986;SDS011;5033;46.310;11.214;2024-02-26T01:10:07;5.70;;;5.20;;
9986;SDS011;5033;46.310;11.214;2024-02-26T01:12:35;5.40;;;4.90;;
9986;SDS011;5033;46.310;11.214;2024-02-26T01:15:02;4.72;;;4.32;;
9986;SDS011;5033;46.310;11.214;2024-02-26T01:17:29;4.90;;;4.53;;
9986;SDS011;5033;46.310;11.214;2024-02-26T01:19:56;4.95;;;4.55;;
9986;SDS011;5033;46.310;11.214;2024-02-26T01:22:23;5.22;;;4.80;;
9986;SDS011;5033;46.310;11.214;2024-02-26T01:24:51;4.93;;;4.60;;
9986;SDS011;5033;46.310;11.214;2024-02-26T01:27:18;4.75;;;4.45;;
9986;SDS011;5033;46.310;11.214;2024-02-26T01:29:45;4.93;;;4.63;;
9986;SDS011;5033;46.310;11.214;2024-02-26T01:32:12;4.78;;;4.38;;
9986;SDS011;5033;46.310;11.214;2024-02-26T01:34:39;5.30;;;4.90;;
9986;SDS011;5033;46.310;11.214;2024-02-26T01:37:06;5.03;;;4.63;;
9986;SDS011;5033;46.310;11.214;2024-02-26T01:39:33;4.80;;;4.40;;
9986;SDS011;5033;46.310;11.214;2024-02-26T01:42:01;4.70;;;4.40;;
9986;SDS011;5033;46.310;11.214;2024-02-26T01:44:28;4.78;;;4.47;;
9986;SDS011;5033;46.310;11.214;2024-02-26T01:46:55;4.97;;;4.57;;
9986;SDS011;5033;46.310;11.214;2024-02-26T01:49:22;4.72;;;4.43;;
9986;SDS011;5033;46.310;11.214;2024-02-26T01:51:49;4.70;;;4.40;;
9986;SDS011;5033;46.310;11.214;2024-02-26T01:54:16;4.80;;;4.40;;
9986;SDS011;5033;46.310;11.214;2024-02-26T01:56:44;4.78;;;4.38;;
9986;SDS011;5033;46.310;11.214;2024-02-26T01:59:12;4.40;;;4.10;;
9986;SDS011;5033;46.310;11.214;2024-02-26T02:01:40;3.95;;;3.65;;
9986;SDS011;5033;46.310;11.214;2024-02-26T02:04:11;4.15;;;3.85;;
9986;SDS011;5033;46.310;11.214;2024-02-26T02:06:38;4.43;;;4.13;;
9986;SDS011;5033;46.310;11.214;2024-02-26T02:09:07;4.40;;;4.10;;
9986;SDS011;5033;46.310;11.214;2024-02-26T02:11:34;3.78;;;3.58;;
9986;SDS011;5033;46.310;11.214;2024-02-26T02:14:01;4.53;;;4.22;;
9986;SDS011;5033;46.310;11.214;2024-02-26T02:16:30;3.65;;;3.45;;
9986;SDS011;5033;46.310;11.214;2024-02-26T02:18:57;4.60;;;4.20;;
9986;SDS011;5033;46.310;11.214;2024-02-26T02:21:26;4.50;;;4.20;;
9986;SDS011;5033;46.310;11.214;2024-02-26T02:23:53;4.40;;;4.10;;
9986;SDS011;5033;46.310;11.214;2024-02-26T02:26:20;4.45;;;4.15;;
9986;SDS011;5033;46.310;11.214;2024-02-26T02:28:47;4.05;;;3.75;;
9986;SDS011;5033;46.310;11.214;2024-02-26T02:31:14;4.18;;;3.85;;
9986;SDS011;5033;46.310;11.214;2024-02-26T02:33:42;4.32;;;4.03;;
9986;SDS011;5033;46.310;11.214;2024-02-26T02:36:09;4.60;;;4.30;;
9986;SDS011;5033;46.310;11.214;2024-02-26T02:38:38;4.10;;;3.85;;
9986;SDS011;5033;46.310;11.214;2024-02-26T02:41:14;4.53;;;4.13;;
9986;SDS011;5033;46.310;11.214;2024-02-26T02:43:41;3.60;;;3.40;;
9986;SDS011;5033;46.310;11.214;2024-02-26T02:46:08;3.90;;;3.70;;
9986;SDS011;5033;46.310;11.214;2024-02-26T02:48:36;4.00;;;3.60;;
9986;SDS011;5033;46.310;11.214;2024-02-26T02:51:03;3.80;;;3.60;;
9986;SDS011;5033;46.310;11.214;2024-02-26T02:53:31;4.30;;;4.00;;
9986;SDS011;5033;46.310;11.214;2024-02-26T02:55:59;4.40;;;4.10;;
9986;SDS011;5033;46.310;11.214;2024-02-26T02:58:26;4.65;;;4.32;;
9986;SDS011;5033;46.310;11.214;2024-02-26T03:00:53;3.85;;;3.55;;
9986;SDS011;5033;46.310;11.214;2024-02-26T03:03:20;3.72;;;3.45;;
9986;SDS011;5033;46.310;11.214;2024-02-26T03:05:49;4.00;;;3.72;;
9986;SDS011;5033;46.310;11.214;2024-02-26T03:08:16;3.65;;;3.35;;
9986;SDS011;5033;46.310;11.214;2024-02-26T03:10:44;4.05;;;3.78;;
9986;SDS011;5033;46.310;11.214;2024-02-26T03:13:12;3.88;;;3.65;;
9986;SDS011;5033;46.310;11.214;2024-02-26T03:15:39;4.00;;;3.70;;
9986;SDS011;5033;46.310;11.214;2024-02-26T03:18:06;3.65;;;3.45;;
9986;SDS011;5033;46.310;11.214;2024-02-26T03:20:33;3.92;;;3.65;;
9986;SDS011;5033;46.310;11.214;2024-02-26T03:23:00;4.13;;;3.92;;
9986;SDS011;5033;46.310;11.214;2024-02-26T03:25:27;4.00;;;3.70;;
9986;SDS011;5033;46.310;11.214;2024-02-26T03:27:54;3.65;;;3.45;;
9986;SDS011;5033;46.310;11.214;2024-02-26T03:30:22;3.83;;;3.63;;
9986;SDS011;5033;46.310;11.214;2024-02-26T03:32:49;3.90;;;3.65;;
9986;SDS011;5033;46.310;11.214;2024-02-26T03:35:16;4.00;;;3.75;;
9986;SDS011;5033;46.310;11.214;2024-02-26T03:37:43;3.88;;;3.58;;
9986;SDS011;5033;46.310;11.214;2024-02-26T03:40:12;3.50;;;3.30;;
9986;SDS011;5033;46.310;11.214;2024-02-26T03:42:39;3.97;;;3.75;;
9986;SDS011;5033;46.310;11.214;2024-02-26T03:45:06;3.60;;;3.40;;
9986;SDS011;5033;46.310;11.214;2024-02-26T03:47:35;3.63;;;3.42;;
9986;SDS011;5033;46.310;11.214;2024-02-26T03:50:04;4.32;;;4.03;;
9986;SDS011;5033;46.310;11.214;2024-02-26T03:52:32;4.10;;;3.90;;
9986;SDS011;5033;46.310;11.214;2024-02-26T03:54:59;4.80;;;4.40;;
9986;SDS011;5033;46.310;11.214;2024-02-26T03:57:26;4.25;;;3.90;;
9986;SDS011;5033;46.310;11.214;2024-02-26T03:59:53;5.03;;;4.72;;
9986;SDS011;5033;46.310;11.214;2024-02-26T04:02:20;4.50;;;4.20;;
9986;SDS011;5033;46.310;11.214;2024-02-26T04:04:49;4.28;;;3.97;;
9986;SDS011;5033;46.310;11.214;2024-02-26T04:07:16;4.55;;;4.15;;
9986;SDS011;5033;46.310;11.214;2024-02-26T04:09:44;4.28;;;3.97;;
9986;SDS011;5033;46.310;11.214;2024-02-26T04:12:10;4.15;;;3.85;;
9986;SDS011;5033;46.310;11.214;2024-02-26T04:14:37;4.38;;;4.07;;
9986;SDS011;5033;46.310;11.214;2024-02-26T04:17:04;4.35;;;4.05;;
9986;SDS011;5033;46.310;11.214;2024-02-26T04:19:31;4.03;;;3.72;;
9986;SDS011;5033;46.310;11.214;2024-02-26T04:22:01;4.53;;;4.20;;
9986;SDS011;5033;46.310;11.214;2024-02-26T04:24:28;4.30;;;4.00;;
9986;SDS011;5033;46.310;11.214;2024-02-26T04:26:55;4.53;;;4.22;;
9986;SDS011;5033;46.310;11.214;2024-02-26T04:29:22;4.85;;;4.55;;
9986;SDS011;5033;46.310;11.214;2024-02-26T04:31:49;3.70;;;3.40;;
9986;SDS011;5033;46.310;11.214;2024-02-26T04:34:16;4.57;;;4.20;;
9986;SDS011;5033;46.310;11.214;2024-02-26T04:36:43;3.90;;;3.70;;
9986;SDS011;5033;46.310;11.214;2024-02-26T04:39:11;3.88;;;3.58;;
9986;SDS011;5033;46.310;11.214;2024-02-26T04:41:38;4.57;;;4.28;;
9986;SDS011;5033;46.310;11.214;2024-02-26T04:44:05;4.60;;;4.20;;
9986;SDS011;5033;46.310;11.214;2024-02-26T04:46:32;4.20;;;3.90;;
9986;SDS011;5033;46.310;11.214;2024-02-26T04:48:59;4.30;;;4.00;;
9986;SDS011;5033;46.310;11.214;2024-02-26T04:51:26;3.75;;;3.55;;
9986;SDS011;5033;46.310;11.214;2024-02-26T04:53:53;4.40;;;4.10;;
9986;SDS011;5033;46.310;11.214;2024-02-26T04:56:22;4.00;;;3.70;;
9986;SDS011;5033;46.310;11.214;2024-02-26T04:58:49;4.57;;;4.18;;
9986;SDS011;5033;46.310;11.214;2024-02-26T05:01:15;4.32;;;4.03;;
9986;SDS011;5033;46.310;11.214;2024-02-26T05:03:43;4.55;;;4.18;;
9986;SDS011;5033;46.310;11.214;2024-02-26T05:06:10;4.30;;;4.00;;
9986;SDS011;5033;46.310;11.214;2024-02-26T05:08:38;4.20;;;4.00;;
9986;SDS011;5033;46.310;11.214;2024-02-26T05:11:05;6.43;;;4.22;;
9986;SDS011;5033;46.310;11.214;2024-02-26T05:13:33;3.92;;;3.63;;
9986;SDS011;5033;46.310;11.214;2024-02-26T05:16:00;3.92;;;3.63;;
9986;SDS011;5033;46.310;11.214;2024-02-26T05:18:27;4.32;;;3.70;;
9986;SDS011;5033;46.310;11.214;2024-02-26T05:20:55;3.97;;;3.67;;
9986;SDS011;5033;46.310;11.214;2024-02-26T05:23:22;3.95;;;3.70;;
9986;SDS011;5033;46.310;11.214;2024-02-26T05:25:49;3.92;;;3.70;;
9986;SDS011;5033;46.310;11.214;2024-02-26T05:28:16;4.10;;;3.90;;
9986;SDS011;5033;46.310;11.214;2024-02-26T05:30:46;4.03;;;3.72;;
9986;SDS011;5033;46.310;11.214;2024-02-26T05:33:13;3.67;;;3.47;;
9986;SDS011;5033;46.310;11.214;2024-02-26T05:35:40;4.20;;;3.90;;
9986;SDS011;5033;46.310;11.214;2024-02-26T05:38:07;4.13;;;3.88;;
9986;SDS011;5033;46.310;11.214;2024-02-26T05:40:34;3.72;;;3.53;;
9986;SDS011;5033;46.310;11.214;2024-02-26T05:43:01;4.30;;;4.00;;
9986;SDS011;5033;46.310;11.214;2024-02-26T05:45:28;3.70;;;3.50;;
9986;SDS011;5033;46.310;11.214;2024-02-26T05:47:57;3.83;;;3.53;;
9986;SDS011;5033;46.310;11.214;2024-02-26T05:50:23;3.85;;;3.65;;
9986;SDS011;5033;46.310;11.214;2024-02-26T05:52:50;4.93;;;4.43;;
9986;SDS011;5033;46.310;11.214;2024-02-26T05:55:17;5.05;;;4.75;;
9986;SDS011;5033;46.310;11.214;2024-02-26T05:57:44;4.85;;;4.45;;
9986;SDS011;5033;46.310;11.214;2024-02-26T06:00:12;4.82;;;4.43;;
9986;SDS011;5033;46.310;11.214;2024-02-26T06:02:39;4.40;;;4.10;;
9986;SDS011;5033;46.310;11.214;2024-02-26T06:05:08;4.25;;;3.95;;
9986;SDS011;5033;46.310;11.214;2024-02-26T06:07:35;4.15;;;3.85;;
9986;SDS011;5033;46.310;11.214;2024-02-26T06:10:02;3.90;;;3.60;;
9986;SDS011;5033;46.310;11.214;2024-02-26T06:12:30;4.10;;;3.80;;
9986;SDS011;5033;46.310;11.214;2024-02-26T06:14:57;4.20;;;3.90;;
9986;SDS011;5033;46.310;11.214;2024-02-26T06:17:26;4.43;;;4.13;;
9986;SDS011;5033;46.310;11.214;2024-02-26T06:19:53;4.32;;;4.03;;
9986;SDS011;5033;46.310;11.214;2024-02-26T06:22:21;4.40;;;4.10;;
9986;SDS011;5033;46.310;11.214;2024-02-26T06:24:48;4.38;;;4.07;;
9986;SDS011;5033;46.310;11.214;2024-02-26T06:27:15;4.13;;;3.85;;
9986;SDS011;5033;46.310;11.214;2024-02-26T06:29:42;4.20;;;3.90;;
9986;SDS011;5033;46.310;11.214;2024-02-26T06:32:09;4.25;;;3.95;;
9986;SDS011;5033;46.310;11.214;2024-02-26T06:34:36;3.60;;;3.40;;
9986;SDS011;5033;46.310;11.214;2024-02-26T06:37:06;4.32;;;4.03;;
9986;SDS011;5033;46.310;11.214;2024-02-26T06:39:35;3.42;;;3.22;;
9986;SDS011;5033;46.310;11.214;2024-02-26T06:42:03;3.95;;;3.65;;
9986;SDS011;5033;46.310;11.214;2024-02-26T06:44:30;4.40;;;4.00;;
9986;SDS011;5033;46.310;11.214;2024-02-26T06:46:57;4.28;;;3.97;;
9986;SDS011;5033;46.310;11.214;2024-02-26T06:49:25;4.70;;;4.30;;
9986;SDS011;5033;46.310;11.214;2024-02-26T06:51:52;4.55;;;4.25;;
9986;SDS011;5033;46.310;11.214;2024-02-26T06:54:19;4.60;;;4.20;;
9986;SDS011;5033;46.310;11.214;2024-02-26T06:56:48;4.30;;;4.00;;
9986;SDS011;5033;46.310;11.214;2024-02-26T06:59:15;4.65;;;4.35;;
9986;SDS011;5033;46.310;11.214;2024-02-26T07:01:42;4.32;;;3.92;;
9986;SDS011;5033;46.310;11.214;2024-02-26T07:04:09;4.40;;;4.10;;
9986;SDS011;5033;46.310;11.214;2024-02-26T07:06:36;4.00;;;3.80;;
9986;SDS011;5033;46.310;11.214;2024-02-26T07:09:03;3.80;;;3.60;;
9986;SDS011;5033;46.310;11.214;2024-02-26T07:11:30;3.85;;;3.65;;
9986;SDS011;5033;46.310;11.214;2024-02-26T07:13:58;4.18;;;3.88;;
9986;SDS011;5033;46.310;11.214;2024-02-26T07:16:26;3.95;;;3.75;;
9986;SDS011;5033;46.310;11.214;2024-02-26T07:18:53;3.65;;;3.45;;
9986;SDS011;5033;46.310;11.214;2024-02-26T07:21:20;4.25;;;3.97;;
9986;SDS011;5033;46.310;11.214;2024-02-26T07:23:47;4.10;;;3.90;;
9986;SDS011;5033;46.310;11.214;2024-02-26T07:26:14;3.70;;;3.42;;
9986;SDS011;5033;46.310;11.214;2024-02-26T07:28:42;3.75;;;3.50;;
9986;SDS011;5033;46.310;11.214;2024-02-26T07:31:10;3.85;;;3.65;;
9986;SDS011;5033;46.310;11.214;2024-02-26T07:33:37;4.00;;;3.70;;
9986;SDS011;5033;46.310;11.214;2024-02-26T07:36:05;3.78;;;3.58;;
9986;SDS011;5033;46.310;11.214;2024-02-26T07:38:32;4.15;;;3.85;;
9986;SDS011;5033;46.310;11.214;2024-02-26T07:40:59;4.82;;;4.43;;
9986;SDS011;5033;46.310;11.214;2024-02-26T07:43:27;4.30;;;4.00;;
9986;SDS011;5033;46.310;11.214;2024-02-26T07:45:54;4.20;;;3.90;;
9986;SDS011;5033;46.310;11.214;2024-02-26T07:48:22;4.70;;;4.40;;
9986;SDS011;5033;46.310;11.214;2024-02-26T07:50:49;4.82;;;4.53;;
9986;SDS011;5033;46.310;11.214;2024-02-26T07:53:16;5.25;;;4.85;;
9986;SDS011;5033;46.310;11.214;2024-02-26T07:55:43;4.93;;;4.63;;
9986;SDS011;5033;46.310;11.214;2024-02-26T07:58:10;4.78;;;4.47;;
9986;SDS011;5033;46.310;11.214;2024-02-26T08:00:37;4.50;;;4.20;;
9986;SDS011;5033;46.310;11.214;2024-02-26T08:03:04;5.10;;;4.70;;
9986;SDS011;5033;46.310;11.214;2024-02-26T08:05:32;5.10;;;4.70;;
9986;SDS011;5033;46.310;11.214;2024-02-26T08:07:59;4.88;;;4.53;;
9986;SDS011;5033;46.310;11.214;2024-02-26T08:10:26;5.68;;;5.18;;
9986;SDS011;5033;46.310;11.214;2024-02-26T08:12:53;5.55;;;5.03;;
9986;SDS011;5033;46.310;11.214;2024-02-26T08:15:20;5.70;;;5.30;;
9986;SDS011;5033;46.310;11.214;2024-02-26T08:17:47;7.40;;;6.72;;
9986;SDS011;5033;46.310;11.214;2024-02-26T08:20:14;7.20;;;6.53;;
9986;SDS011;5033;46.310;11.214;2024-02-26T08:22:43;7.00;;;6.40;;
9986;SDS011;5033;46.310;11.214;2024-02-26T08:25:10;5.88;;;5.43;;
9986;SDS011;5033;46.310;11.214;2024-02-26T08:27:37;6.10;;;5.60;;
9986;SDS011;5033;46.310;11.214;2024-02-26T08:30:05;6.50;;;5.90;;
9986;SDS011;5033;46.310;11.214;2024-02-26T08:32:32;6.70;;;6.10;;
9986;SDS011;5033;46.310;11.214;2024-02-26T08:34:59;6.88;;;6.28;;
9986;SDS011;5033;46.310;11.214;2024-02-26T08:37:26;6.07;;;5.55;;
9986;SDS011;5033;46.310;11.214;2024-02-26T08:39:55;6.10;;;5.60;;
9986;SDS011;5033;46.310;11.214;2024-02-26T08:42:21;6.15;;;5.65;;
9986;SDS011;5033;46.310;11.214;2024-02-26T08:44:49;6.78;;;6.07;;
9986;SDS011;5033;46.310;11.214;2024-02-26T08:47:16;6.72;;;6.13;;
9986;SDS011;5033;46.310;11.214;2024-02-26T08:49:44;6.97;;;6.38;;
9986;SDS011;5033;46.310;11.214;2024-02-26T08:52:11;7.20;;;6.50;;
9986;SDS011;5033;46.310;11.214;2024-02-26T08:54:38;6.38;;;5.88;;
9986;SDS011;5033;46.310;11.214;2024-02-26T08:57:07;7.43;;;6.72;;
9986;SDS011;5033;46.310;11.214;2024-02-26T08:59:34;6.38;;;5.90;;
9986;SDS011;5033;46.310;11.214;2024-02-26T09:02:01;7.00;;;6.40;;
9986;SDS011;5033;46.310;11.214;2024-02-26T09:04:29;6.50;;;6.00;;
9986;SDS011;5033;46.310;11.214;2024-02-26T09:06:55;6.40;;;5.80;;
9986;SDS011;5033;46.310;11.214;2024-02-26T09:09:22;6.93;;;6.35;;
9986;SDS011;5033;46.310;11.214;2024-02-26T09:11:51;7.68;;;6.90;;
9986;SDS011;5033;46.310;11.214;2024-02-26T09:14:21;6.13;;;5.63;;
9986;SDS011;5033;46.310;11.214;2024-02-26T09:16:48;5.95;;;5.45;;
9986;SDS011;5033;46.310;11.214;2024-02-26T09:19:15;6.20;;;5.72;;
9986;SDS011;5033;46.310;11.214;2024-02-26T09:21:42;6.32;;;5.72;;
9986;SDS011;5033;46.310;11.214;2024-02-26T09:24:09;5.25;;;4.80;;
9986;SDS011;5033;46.310;11.214;2024-02-26T09:26:36;5.55;;;5.05;;
9986;SDS011;5033;46.310;11.214;2024-02-26T09:29:03;6.07;;;5.57;;
9986;SDS011;5033;46.310;11.214;2024-02-26T09:31:33;5.18;;;4.78;;
9986;SDS011;5033;46.310;11.214;2024-02-26T09:34:00;4.82;;;4.53;;
9986;SDS011;5033;46.310;11.214;2024-02-26T09:36:27;5.25;;;4.85;;
9986;SDS011;5033;46.310;11.214;2024-02-26T09:38:54;5.65;;;5.25;;
9986;SDS011;5033;46.310;11.214;2024-02-26T09:41:21;4.82;;;4.45;;
9986;SDS011;5033;46.310;11.214;2024-02-26T09:43:49;4.72;;;4.43;;
9986;SDS011;5033;46.310;11.214;2024-02-26T09:46:22;5.10;;;4.40;;
9986;SDS011;5033;46.310;11.214;2024-02-26T09:48:50;5.05;;;4.57;;
9986;SDS011;5033;46.310;11.214;2024-02-26T09:51:18;4.80;;;4.40;;
9986;SDS011;5033;46.310;11.214;2024-02-26T09:53:46;4.72;;;4.32;;
9986;SDS011;5033;46.310;11.214;2024-02-26T09:56:15;5.07;;;4.68;;
9986;SDS011;5033;46.310;11.214;2024-02-26T09:58:42;4.90;;;4.50;;
9986;SDS011;5033;46.310;11.214;2024-02-26T10:01:11;4.43;;;4.13;;
9986;SDS011;5033;46.310;11.214;2024-02-26T10:03:40;4.65;;;4.25;;
9986;SDS011;5033;46.310;11.214;2024-02-26T10:06:11;5.05;;;4.65;;
9986;SDS011;5033;46.310;11.214;2024-02-26T10:08:38;4.90;;;4.50;;
9986;SDS011;5033;46.310;11.214;2024-02-26T10:11:06;5.35;;;4.95;;
9986;SDS011;5033;46.310;11.214;2024-02-26T10:13:34;5.20;;;4.63;;
9986;SDS011;5033;46.310;11.214;2024-02-26T10:16:01;4.50;;;4.20;;
9986;SDS011;5033;46.310;11.214;2024-02-26T10:18:44;5.22;;;4.82;;
9986;SDS011;5033;46.310;11.214;2024-02-26T10:21:13;4.65;;;4.25;;
9986;SDS011;5033;46.310;11.214;2024-02-26T10:23:43;5.53;;;4.13;;
9986;SDS011;5033;46.310;11.214;2024-02-26T10:26:10;4.40;;;4.00;;
9986;SDS011;5033;46.310;11.214;2024-02-26T10:28:38;4.20;;;3.90;;
9986;SDS011;5033;46.310;11.214;2024-02-26T10:31:06;4.38;;;4.07;;
9986;SDS011;5033;46.310;11.214;2024-02-26T10:33:34;4.07;;;3.78;;
9986;SDS011;5033;46.310;11.214;2024-02-26T10:36:02;4.15;;;3.78;;
9986;SDS011;5033;46.310;11.214;2024-02-26T10:38:31;3.95;;;3.65;;
9986;SDS011;5033;46.310;11.214;2024-02-26T10:40:59;4.28;;;3.97;;
9986;SDS011;5033;46.310;11.214;2024-02-26T10:43:25;4.57;;;4.18;;
9986;SDS011;5033;46.310;11.214;2024-02-26T10:45:54;4.35;;;4.03;;
9986;SDS011;5033;46.310;11.214;2024-02-26T10:48:21;4.63;;;4.15;;
9986;SDS011;5033;46.310;11.214;2024-02-26T10:50:48;4.30;;;4.00;;
9986;SDS011;5033;46.310;11.214;2024-02-26T10:53:17;4.85;;;4.38;;
9986;SDS011;5033;46.310;11.214;2024-02-26T10:55:48;4.00;;;3.75;;
9986;SDS011;5033;46.310;11.214;2024-02-26T10:58:16;4.93;;;3.50;;
9986;SDS011;5033;46.310;11.214;2024-02-26T11:00:44;3.67;;;3.47;;
9986;SDS011;5033;46.310;11.214;2024-02-26T11:03:13;4.15;;;3.85;;
9986;SDS011;5033;46.310;11.214;2024-02-26T11:05:42;4.57;;;4.18;;
9986;SDS011;5033;46.310;11.214;2024-02-26T11:08:11;4.63;;;4.30;;
9986;SDS011;5033;46.310;11.214;2024-02-26T11:10:38;4.65;;;4.22;;
9986;SDS011;5033;46.310;11.214;2024-02-26T11:13:08;4.80;;;4.38;;
9986;SDS011;5033;46.310;11.214;2024-02-26T11:15:38;4.55;;;4.15;;
9986;SDS011;5033;46.310;11.214;2024-02-26T11:18:07;4.03;;;3.72;;
9986;SDS011;5033;46.310;11.214;2024-02-26T11:20:35;3.92;;;3.53;;
9986;SDS011;5033;46.310;11.214;2024-02-26T11:23:06;4.40;;;4.10;;
9986;SDS011;5033;46.310;11.214;2024-02-26T11:25:34;4.15;;;3.85;;
9986;SDS011;5033;46.310;11.214;2024-02-26T11:28:05;3.83;;;3.53;;
9986;SDS011;5033;46.310;11.214;2024-02-26T11:30:35;4.10;;;3.80;;
9986;SDS011;5033;46.310;11.214;2024-02-26T11:33:07;3.95;;;3.65;;
9986;SDS011;5033;46.310;11.214;2024-02-26T11:35:36;3.78;;;3.53;;
9986;SDS011;5033;46.310;11.214;2024-02-26T11:38:03;4.07;;;3.78;;
9986;SDS011;5033;46.310;11.214;2024-02-26T11:40:32;4.30;;;4.00;;
9986;SDS011;5033;46.310;11.214;2024-02-26T11:43:08;3.83;;;3.53;;
9986;SDS011;5033;46.310;11.214;2024-02-26T11:45:48;4.32;;;3.92;;
9986;SDS011;5033;46.310;11.214;2024-02-26T11:48:21;4.07;;;3.75;;
9986;SDS011;5033;46.310;11.214;2024-02-26T11:50:50;4.05;;;3.70;;
9986;SDS011;5033;46.310;11.214;2024-02-26T11:53:25;3.22;;;3.03;;
9986;SDS011;5033;46.310;11.214;2024-02-26T11:58:49;3.50;;;3.30;;
9986;SDS011;5033;46.310;11.214;2024-02-26T12:04:06;4.15;;;3.85;;
9986;SDS011;5033;46.310;11.214;2024-02-26T12:06:55;4.13;;;3.83;;
9986;SDS011;5033;46.310;11.214;2024-02-26T12:09:31;3.60;;;3.40;;
9986;SDS011;5033;46.310;11.214;2024-02-26T12:11:58;3.88;;;3.58;;
9986;SDS011;5033;46.310;11.214;2024-02-26T12:14:28;4.10;;;3.80;;
9986;SDS011;5033;46.310;11.214;2024-02-26T12:16:55;5.97;;;4.30;;
9986;SDS011;5033;46.310;11.214;2024-02-26T12:19:23;4.95;;;4.45;;
9986;SDS011;5033;46.310;11.214;2024-02-26T12:21:51;5.05;;;4.65;;
9986;SDS011;5033;46.310;11.214;2024-02-26T12:24:20;4.57;;;4.10;;
9986;SDS011;5033;46.310;11.214;2024-02-26T12:26:47;4.25;;;3.70;;
9986;SDS011;5033;46.310;11.214;2024-02-26T12:29:14;3.80;;;3.50;;
9986;SDS011;5033;46.310;11.214;2024-02-26T12:31:43;3.67;;;3.38;;
9986;SDS011;5033;46.310;11.214;2024-02-26T12:34:10;4.65;;;4.25;;
9986;SDS011;5033;46.310;11.214;2024-02-26T12:36:37;3.97;;;3.55;;
9986;SDS011;5033;46.310;11.214;2024-02-26T12:39:05;4.07;;;3.83;;
9986;SDS011;5033;46.310;11.214;2024-02-26T12:41:34;3.42;;;3.22;;
9986;SDS011;5033;46.310;11.214;2024-02-26T12:44:01;5.25;;;4.68;;
9986;SDS011;5033;46.310;11.214;2024-02-26T12:46:28;4.57;;;4.18;;
9986;SDS011;5033;46.310;11.214;2024-02-26T12:48:57;4.25;;;3.95;;
9986;SDS011;5033;46.310;11.214;2024-02-26T12:51:25;5.55;;;5.15;;
9986;SDS011;5033;46.310;11.214;2024-02-26T12:53:52;5.05;;;4.45;;
9986;SDS011;5033;46.310;11.214;2024-02-26T12:56:20;4.85;;;4.47;;
9986;SDS011;5033;46.310;11.214;2024-02-26T12:58:48;4.72;;;4.43;;
9986;SDS011;5033;46.310;11.214;2024-02-26T13:01:18;4.43;;;4.13;;
9986;SDS011;5033;46.310;11.214;2024-02-26T13:03:49;4.97;;;4.40;;
9986;SDS011;5033;46.310;11.214;2024-02-26T13:06:18;4.75;;;4.43;;
9986;SDS011;5033;46.310;11.214;2024-02-26T13:08:46;4.65;;;4.25;;
9986;SDS011;5033;46.310;11.214;2024-02-26T13:11:14;4.72;;;4.13;;
9986;SDS011;5033;46.310;11.214;2024-02-26T13:13:41;5.50;;;4.47;;
9986;SDS011;5033;46.310;11.214;2024-02-26T13:16:10;4.47;;;4.10;;
9986;SDS011;5033;46.310;11.214;2024-02-26T13:18:40;5.65;;;5.15;;
9986;SDS011;5033;46.310;11.214;2024-02-26T13:21:08;5.38;;;4.97;;
9986;SDS011;5033;46.310;11.214;2024-02-26T13:23:38;5.03;;;4.63;;
9986;SDS011;5033;46.310;11.214;2024-02-26T13:26:06;4.63;;;4.22;;
9986;SDS011;5033;46.310;11.214;2024-02-26T13:28:33;4.43;;;4.13;;
9986;SDS011;5033;46.310;11.214;2024-02-26T13:31:01;4.53;;;4.20;;
9986;SDS011;5033;46.310;11.214;2024-02-26T13:33:29;3.90;;;3.60;;
9986;SDS011;5033;46.310;11.214;2024-02-26T13:35:57;3.90;;;3.60;;
9986;SDS011;5033;46.310;11.214;2024-02-26T13:38:25;4.13;;;3.72;;
9986;SDS011;5033;46.310;11.214;2024-02-26T13:40:53;3.88;;;3.58;;
9986;SDS011;5033;46.310;11.214;2024-02-26T13:43:21;4.13;;;3.83;;
9986;SDS011;5033;46.310;11.214;2024-02-26T13:45:48;4.57;;;4.18;;
9986;SDS011;5033;46.310;11.214;2024-02-26T13:48:15;3.95;;;3.60;;
9986;SDS011;5033;46.310;11.214;2024-02-26T13:50:42;3.95;;;3.72;;
9986;SDS011;5033;46.310;11.214;2024-02-26T13:53:10;3.72;;;3.30;;
9986;SDS011;5033;46.310;11.214;2024-02-26T13:55:38;3.85;;;3.42;;
9986;SDS011;5033;46.310;11.214;2024-02-26T13:58:09;3.45;;;3.15;;
9986;SDS011;5033;46.310;11.214;2024-02-26T14:00:38;3.03;;;2.85;;
9986;SDS011;5033;46.310;11.214;2024-02-26T14:03:06;4.10;;;3.80;;
9986;SDS011;5033;46.310;11.214;2024-02-26T14:05:33;3.85;;;3.60;;
9986;SDS011;5033;46.310;11.214;2024-02-26T14:08:00;3.25;;;3.05;;
9986;SDS011;5033;46.310;11.214;2024-02-26T14:10:28;3.50;;;3.30;;
9986;SDS011;5033;46.310;11.214;2024-02-26T14:12:55;3.72;;;3.42;;
9986;SDS011;5033;46.310;11.214;2024-02-26T14:15:23;3.50;;;3.30;;
9986;SDS011;5033;46.310;11.214;2024-02-26T14:17:51;3.90;;;3.60;;
9986;SDS011;5033;46.310;11.214;2024-02-26T14:20:21;3.88;;;3.58;;
9986;SDS011;5033;46.310;11.214;2024-02-26T14:22:48;3.85;;;3.55;;
9986;SDS011;5033;46.310;11.214;2024-02-26T14:25:16;4.00;;;3.70;;
9986;SDS011;5033;46.310;11.214;2024-02-26T14:27:43;4.20;;;3.90;;
9986;SDS011;5033;46.310;11.214;2024-02-26T14:30:11;3.90;;;3.70;;
9986;SDS011;5033;46.310;11.214;2024-02-26T14:32:40;3.70;;;3.50;;
9986;SDS011;5033;46.310;11.214;2024-02-26T14:35:07;4.20;;;3.90;;
9986;SDS011;5033;46.310;11.214;2024-02-26T14:37:35;4.15;;;3.85;;
9986;SDS011;5033;46.310;11.214;2024-02-26T14:40:02;4.28;;;3.97;;
9986;SDS011;5033;46.310;11.214;2024-02-26T14:42:30;4.47;;;4.13;;
9986;SDS011;5033;46.310;11.214;2024-02-26T14:44:57;4.70;;;4.40;;
9986;SDS011;5033;46.310;11.214;2024-02-26T14:47:24;4.50;;;4.20;;
9986;SDS011;5033;46.310;11.214;2024-02-26T14:49:53;4.43;;;4.03;;
9986;SDS011;5033;46.310;11.214;2024-02-26T14:52:20;4.32;;;3.92;;
9986;SDS011;5033;46.310;11.214;2024-02-26T14:54:47;4.38;;;4.03;;
9986;SDS011;5033;46.310;11.214;2024-02-26T14:57:16;4.15;;;3.85;;
9986;SDS011;5033;46.310;11.214;2024-02-26T14:59:43;4.03;;;3.72;;
9986;SDS011;5033;46.310;11.214;2024-02-26T15:02:10;5.47;;;4.82;;
9986;SDS011;5033;46.310;11.214;2024-02-26T15:04:37;4.97;;;3.97;;
9986;SDS011;5033;46.310;11.214;2024-02-26T15:07:05;5.03;;;4.53;;
9986;SDS011;5033;46.310;11.214;2024-02-26T15:09:32;5.00;;;4.53;;